createdAt,value
2022-08-16T00:00:38.459Z,99201.95
2022-08-16T00:01:44.727Z,99201.95
2022-08-16T00:02:49.217Z,99207.96
2022-08-16T00:03:54.308Z,99220.89
2022-08-16T00:04:59.734Z,99226.67
2022-08-16T00:06:05.874Z,99226.11
2022-08-16T00:07:11.511Z,99256.88
2022-08-16T00:08:30.595Z,99235.38
2022-08-16T00:09:21.829Z,99265.45
2022-08-16T00:10:28.942Z,99265.45
2022-08-16T00:11:33.765Z,99258.56
2022-08-16T00:12:38.270Z,99252.42
2022-08-16T00:13:42.573Z,99252.42
2022-08-16T00:14:46.900Z,99263.36
2022-08-16T00:15:54.385Z,99263.36
2022-08-16T00:17:00.589Z,99271.11
2022-08-16T00:18:03.140Z,99247.78
2022-08-16T00:19:10.694Z,99241.55
2022-08-16T00:20:21.049Z,99243.92
2022-08-16T00:21:24.869Z,99235.41
2022-08-16T00:22:28.926Z,99235.41
2022-08-16T00:23:34.873Z,99238.14
2022-08-16T00:24:38.795Z,99238.14
2022-08-16T00:26:35.476Z,99237.86
2022-08-16T00:26:49.518Z,99244.74
2022-08-16T00:27:54.263Z,99242.34
2022-08-16T00:28:58.299Z,99242.34
2022-08-16T00:30:09.284Z,99250.92
2022-08-16T00:31:13.290Z,99255.88
2022-08-16T00:32:18.966Z,99261.42
2022-08-16T00:33:23.014Z,99261.42
2022-08-16T00:34:44.339Z,99270.28
2022-08-16T00:35:35.823Z,99270.28
2022-08-16T00:36:47.386Z,99268.14
2022-08-16T00:37:58.640Z,99275.84
2022-08-16T00:38:56.185Z,99267.10
2022-08-16T00:40:00.483Z,99286.62
2022-08-16T00:41:06.013Z,99284.45
2022-08-16T00:42:10.491Z,99284.45
2022-08-16T00:43:23.578Z,99292.98
2022-08-16T00:44:32.690Z,99292.98
2022-08-16T00:45:36.377Z,99314.50
2022-08-16T00:46:53.999Z,99314.50
2022-08-16T00:47:53.156Z,99284.00
2022-08-16T00:48:58.265Z,99296.22
2022-08-16T00:50:02.296Z,99296.22
2022-08-16T00:51:07.220Z,99273.67
2022-08-16T00:52:29.643Z,99258.76
2022-08-16T00:53:19.666Z,99246.33
2022-08-16T00:54:27.048Z,99255.52
2022-08-16T00:55:37.837Z,99263.61
2022-08-16T00:56:58.487Z,99254.20
2022-08-16T00:57:59.448Z,99252.09
2022-08-16T00:58:54.350Z,99247.81
2022-08-16T00:59:59.912Z,99238.04
2022-08-16T01:01:08.509Z,99237.05
2022-08-16T01:02:31.811Z,99237.05
2022-08-16T01:03:20.636Z,99230.12
2022-08-16T01:04:30.004Z,99233.17
2022-08-16T01:05:41.462Z,99233.03
2022-08-16T01:06:49.207Z,99227.62
2022-08-16T01:07:51.606Z,99232.62
2022-08-16T01:08:59.867Z,99231.61
2022-08-16T01:10:03.810Z,99231.61
2022-08-16T01:11:09.759Z,99231.78
2022-08-16T01:12:26.686Z,99231.78
2022-08-16T01:13:22.675Z,99205.10
2022-08-16T01:14:32.214Z,99205.10
2022-08-16T01:15:43.160Z,99238.32
2022-08-16T01:16:46.977Z,99237.31
2022-08-16T01:17:56.130Z,99233.28
2022-08-16T01:19:05.316Z,99237.66
2022-08-16T01:20:24.440Z,99241.56
2022-08-16T01:21:33.570Z,99241.06
2022-08-16T01:22:57.666Z,99248.44
2022-08-16T01:24:52.018Z,99248.44
2022-08-16T01:25:34.069Z,99241.13
2022-08-16T01:26:39.355Z,99240.63
2022-08-16T01:27:46.535Z,99240.63
2022-08-16T01:28:50.917Z,98971.30
2022-08-16T01:30:19.517Z,98971.30
2022-08-16T01:31:21.145Z,99248.83
2022-08-16T01:32:31.862Z,99247.16
2022-08-16T01:33:36.492Z,99246.34
2022-08-16T01:34:47.573Z,99246.34
2022-08-16T01:35:53.333Z,99243.09
2022-08-16T01:37:00.686Z,99243.36
2022-08-16T01:38:29.426Z,99243.36
2022-08-16T01:39:35.433Z,99248.83
2022-08-16T01:40:40.048Z,99248.83
2022-08-16T01:41:45.606Z,99257.86
2022-08-16T01:42:51.395Z,99257.86
2022-08-16T01:44:00.951Z,99242.27
2022-08-16T01:45:04.046Z,99242.27
2022-08-16T01:46:29.632Z,99249.97
2022-08-16T01:47:21.128Z,99252.20
2022-08-16T01:48:28.544Z,99243.51
2022-08-16T01:49:43.035Z,99235.30
2022-08-16T01:51:08.346Z,99228.42
2022-08-16T01:51:52.536Z,99231.41
2022-08-16T01:52:58.269Z,99238.52
2022-08-16T01:54:02.392Z,99241.02
2022-08-16T01:55:07.908Z,99241.02
2022-08-16T01:56:24.466Z,99243.51
2022-08-16T01:57:22.856Z,99241.84
2022-08-16T01:58:27.072Z,99241.84
2022-08-16T01:59:33.307Z,99242.34
2022-08-16T02:00:38.908Z,99245.66
2022-08-16T02:01:44.424Z,99245.66
2022-08-16T02:03:00.933Z,99240.70
2022-08-16T02:04:10.170Z,99247.81
2022-08-16T02:05:13.445Z,99252.16
2022-08-16T02:06:33.586Z,99252.16
2022-08-16T02:07:28.757Z,99236.22
2022-08-16T02:08:35.311Z,99230.74
2022-08-16T02:09:42.305Z,99232.42
2022-08-16T02:10:48.161Z,99228.01
2022-08-16T02:11:55.419Z,99223.63
2022-08-16T02:13:00.705Z,99233.98
2022-08-16T02:14:06.023Z,99236.22
2022-08-16T02:15:13.227Z,99236.22
2022-08-16T02:16:20.249Z,99242.20
2022-08-16T02:17:24.379Z,99238.39
2022-08-16T02:18:30.247Z,99239.73
2022-08-16T02:19:59.481Z,99237.23
2022-08-16T02:20:45.668Z,99228.44
2022-08-16T02:22:09.322Z,99227.89
2022-08-16T02:23:00.231Z,99227.89
2022-08-16T02:24:31.459Z,99215.03
2022-08-16T02:25:15.301Z,99212.53
2022-08-16T02:26:20.885Z,99212.53
2022-08-16T02:27:27.388Z,99214.02
2022-08-16T02:28:33.114Z,99206.06
2022-08-16T02:29:41.521Z,99206.06
2022-08-16T02:30:50.689Z,99204.41
2022-08-16T02:32:03.658Z,99204.41
2022-08-16T02:32:59.182Z,99204.09
2022-08-16T02:34:06.542Z,99204.09
2022-08-16T02:35:10.569Z,99204.09
2022-08-16T02:36:48.070Z,99204.09
2022-08-16T02:37:23.647Z,99201.79
2022-08-16T02:38:31.623Z,99201.79
2022-08-16T02:39:35.930Z,99200.63
2022-08-16T02:40:42.172Z,99197.30
2022-08-16T02:41:53.267Z,99195.08
2022-08-16T02:42:55.514Z,99203.27
2022-08-16T02:43:59.733Z,99207.59
2022-08-16T02:45:05.249Z,99204.28
2022-08-16T02:46:10.320Z,99204.28
2022-08-16T02:47:25.340Z,99195.49
2022-08-16T02:48:29.928Z,99202.13
2022-08-16T02:49:58.438Z,99197.14
2022-08-16T02:50:53.510Z,99197.14
2022-08-16T02:51:39.339Z,99204.28
2022-08-16T02:52:45.345Z,99200.87
2022-08-16T02:53:51.250Z,99202.47
2022-08-16T02:54:57.153Z,99207.43
2022-08-16T02:56:01.210Z,99198.64
2022-08-16T02:57:05.432Z,99205.20
2022-08-16T02:58:11.271Z,99205.20
2022-08-16T02:59:17.024Z,99204.61
2022-08-16T03:00:33.522Z,99207.26
2022-08-16T03:01:33.716Z,99203.44
2022-08-16T03:02:36.100Z,99205.27
2022-08-16T03:04:28.740Z,99205.27
2022-08-16T03:04:52.586Z,99202.80
2022-08-16T03:05:54.420Z,99193.27
2022-08-16T03:06:58.650Z,99190.19
2022-08-16T03:08:03.646Z,99195.73
2022-08-16T03:09:13.046Z,99190.86
2022-08-16T03:10:15.094Z,99193.01
2022-08-16T03:11:21.941Z,99190.77
2022-08-16T03:12:30.100Z,99191.95
2022-08-16T03:13:31.863Z,99191.95
2022-08-16T03:14:37.642Z,99198.47
2022-08-16T03:15:42.286Z,99203.44
2022-08-16T03:16:59.093Z,99201.30
2022-08-16T03:17:54.580Z,99201.30
2022-08-16T03:18:58.805Z,99192.50
2022-08-16T03:20:12.746Z,99186.98
2022-08-16T03:21:18.548Z,99186.98
2022-08-16T03:22:29.155Z,99194.09
2022-08-16T03:23:35.763Z,99189.22
2022-08-16T03:24:35.143Z,99189.22
2022-08-16T03:25:44.638Z,99190.21
2022-08-16T03:26:51.792Z,99190.21
2022-08-16T03:27:57.541Z,99192.09
2022-08-16T03:29:24.634Z,99196.73
2022-08-16T03:30:21.732Z,99205.76
2022-08-16T03:31:34.645Z,99200.29
2022-08-16T03:32:34.412Z,99201.46
2022-08-16T03:33:39.741Z,99214.05
2022-08-16T03:34:43.736Z,99214.05
2022-08-16T03:35:49.453Z,99211.89
2022-08-16T03:36:55.762Z,99214.63
2022-08-16T03:38:34.432Z,99208.07
2022-08-16T03:39:20.300Z,99208.07
2022-08-16T03:40:32.788Z,99221.73
2022-08-16T03:41:49.866Z,99223.33
2022-08-16T03:43:00.608Z,99224.47
2022-08-16T03:43:51.471Z,99224.47
2022-08-16T03:45:03.290Z,99227.80
2022-08-16T03:46:47.749Z,99220.17
2022-08-16T03:47:19.255Z,99224.47
2022-08-16T03:48:19.729Z,99224.47
2022-08-16T03:49:23.885Z,99224.00
2022-08-16T03:50:31.582Z,99222.83
2022-08-16T03:51:35.618Z,99222.83
2022-08-16T03:52:43.701Z,99218.03
2022-08-16T03:54:00.743Z,99212.56
2022-08-16T03:54:58.083Z,99212.56
2022-08-16T03:56:02.495Z,99214.30
2022-08-16T03:57:11.489Z,99229.88
2022-08-16T03:58:13.041Z,99220.42
2022-08-16T03:59:17.584Z,99220.42
2022-08-16T04:00:35.876Z,99238.71
2022-08-16T04:01:31.170Z,99219.34
2022-08-16T04:02:37.287Z,99219.34
2022-08-16T04:03:43.231Z,99222.97
2022-08-16T04:04:48.733Z,99222.22
2022-08-16T04:05:54.501Z,99214.16
2022-08-16T04:06:58.754Z,99214.16
2022-08-16T04:08:22.717Z,99211.44
2022-08-16T04:09:12.410Z,99209.34
2022-08-16T04:10:36.273Z,99219.94
2022-08-16T04:11:24.599Z,99219.94
2022-08-16T04:12:53.372Z,99213.61
2022-08-16T04:13:58.919Z,99228.49
2022-08-16T04:14:48.327Z,99200.69
2022-08-16T04:15:52.958Z,99196.08
2022-08-16T04:16:57.194Z,99196.08
2022-08-16T04:18:05.159Z,99208.06
2022-08-16T04:19:10.632Z,99208.06
2022-08-16T04:20:31.180Z,99199.25
2022-08-16T04:21:29.284Z,99198.55
2022-08-16T04:22:31.055Z,99198.59
2022-08-16T04:23:38.585Z,99200.37
2022-08-16T04:24:54.233Z,99200.37
2022-08-16T04:25:55.178Z,99227.50
2022-08-16T04:27:00.708Z,99218.19
2022-08-16T04:28:52.205Z,99213.86
2022-08-16T04:29:16.715Z,99213.86
2022-08-16T04:30:32.092Z,99203.50
2022-08-16T04:31:25.491Z,99211.78
2022-08-16T04:32:35.515Z,99211.78
2022-08-16T04:33:51.167Z,99208.14
2022-08-16T04:34:47.745Z,99214.41
2022-08-16T04:36:07.195Z,99214.41
2022-08-16T04:37:02.845Z,99213.86
2022-08-16T04:38:10.621Z,99221.58
2022-08-16T04:39:18.583Z,99211.70
2022-08-16T04:40:29.558Z,99211.70
2022-08-16T04:41:43.543Z,99217.21
2022-08-16T04:42:49.612Z,99219.89
2022-08-16T04:43:56.293Z,99229.19
2022-08-16T04:45:04.804Z,99228.06
2022-08-16T04:46:26.503Z,99228.06
2022-08-16T04:47:21.446Z,99230.81
2022-08-16T04:48:36.973Z,99228.31
2022-08-16T04:49:53.182Z,99226.05
2022-08-16T04:50:49.405Z,99242.02
2022-08-16T04:51:55.315Z,99237.88
2022-08-16T04:53:00.143Z,99225.86
2022-08-16T04:54:04.452Z,99225.86
2022-08-16T04:55:12.617Z,99229.14
2022-08-16T04:56:22.200Z,99229.14
2022-08-16T04:57:25.916Z,99236.86
2022-08-16T04:58:43.938Z,99234.14
2022-08-16T04:59:37.428Z,99230.60
2022-08-16T05:00:43.356Z,99230.60
2022-08-16T05:01:58.754Z,99248.50
2022-08-16T05:02:58.773Z,99248.50
2022-08-16T05:04:03.515Z,99244.76
2022-08-16T05:05:17.056Z,99244.76
2022-08-16T05:06:15.568Z,99250.83
2022-08-16T05:07:21.396Z,99251.41
2022-08-16T05:08:31.132Z,99251.41
2022-08-16T05:09:36.576Z,99258.59
2022-08-16T05:10:46.525Z,99262.18
2022-08-16T05:11:49.894Z,99262.18
2022-08-16T05:12:55.130Z,99266.86
2022-08-16T05:14:07.060Z,99266.86
2022-08-16T05:15:10.372Z,99272.34
2022-08-16T05:16:20.038Z,99266.74
2022-08-16T05:17:25.405Z,99277.39
2022-08-16T05:18:30.166Z,99277.39
2022-08-16T05:19:36.188Z,99279.78
2022-08-16T05:20:54.110Z,99275.70
2022-08-16T05:21:49.095Z,99289.12
2022-08-16T05:23:00.910Z,99291.59
2022-08-16T05:24:09.027Z,99291.59
2022-08-16T05:25:18.894Z,99295.69
2022-08-16T05:26:29.408Z,99288.78
2022-08-16T05:27:33.577Z,99289.00
2022-08-16T05:28:39.313Z,99295.03
2022-08-16T05:30:01.040Z,99279.69
2022-08-16T05:30:52.201Z,99295.28
2022-08-16T05:31:56.381Z,99295.28
2022-08-16T05:33:00.398Z,99283.52
2022-08-16T05:34:06.007Z,99289.58
2022-08-16T05:35:16.019Z,99290.14
2022-08-16T05:36:36.036Z,99282.69
2022-08-16T05:37:39.473Z,99295.06
2022-08-16T05:38:39.288Z,99295.06
2022-08-16T05:39:51.982Z,99281.65
2022-08-16T05:41:01.188Z,99297.27
2022-08-16T05:42:06.359Z,99287.70
2022-08-16T05:43:12.015Z,99287.70
2022-08-16T05:44:23.926Z,99299.98
2022-08-16T05:45:23.780Z,99297.52
2022-08-16T05:46:30.982Z,99304.94
2022-08-16T05:47:43.161Z,99304.94
2022-08-16T05:48:40.989Z,99287.96
2022-08-16T05:49:45.426Z,99287.96
2022-08-16T05:50:54.586Z,99286.34
2022-08-16T05:51:57.544Z,99286.34
2022-08-16T05:53:01.752Z,99063.09
2022-08-16T05:54:05.919Z,99285.91
2022-08-16T05:55:10.326Z,99285.91
2022-08-16T05:56:19.338Z,99289.89
2022-08-16T05:57:22.785Z,99289.89
2022-08-16T05:58:33.112Z,99294.31
2022-08-16T05:59:35.473Z,99301.22
2022-08-16T06:00:43.566Z,99305.88
2022-08-16T06:01:48.077Z,99305.88
2022-08-16T06:02:53.473Z,99293.25
2022-08-16T06:03:57.612Z,99303.14
2022-08-16T06:05:04.240Z,99292.71
2022-08-16T06:06:08.725Z,99332.06
2022-08-16T06:07:25.034Z,99332.06
2022-08-16T06:08:32.416Z,99297.98
2022-08-16T06:09:43.248Z,99307.56
2022-08-16T06:10:33.379Z,99305.61
2022-08-16T06:11:38.169Z,99305.61
2022-08-16T06:12:45.344Z,99312.21
2022-08-16T06:13:51.427Z,99304.19
2022-08-16T06:15:04.498Z,99310.77
2022-08-16T06:16:18.580Z,99310.77
2022-08-16T06:17:15.346Z,99317.88
2022-08-16T06:18:19.636Z,99304.12
2022-08-16T06:19:25.485Z,99325.25
2022-08-16T06:20:35.908Z,99322.73
2022-08-16T06:21:37.686Z,99322.73
2022-08-16T06:22:47.727Z,99326.81
2022-08-16T06:23:54.048Z,99318.26
2022-08-16T06:24:56.530Z,99324.23
2022-08-16T06:26:00.555Z,99323.41
2022-08-16T06:27:04.800Z,99323.41
2022-08-16T06:28:17.018Z,99329.66
2022-08-16T06:29:17.858Z,99342.34
2022-08-16T06:30:24.335Z,99341.27
2022-08-16T06:31:30.188Z,99335.25
2022-08-16T06:32:48.507Z,99344.59
2022-08-16T06:33:51.760Z,99345.13
2022-08-16T06:35:11.161Z,99364.00
2022-08-16T06:36:08.368Z,99364.00
2022-08-16T06:37:17.419Z,99356.11
2022-08-16T06:38:34.026Z,99336.32
2022-08-16T06:39:49.432Z,99365.95
2022-08-16T06:40:49.276Z,99368.13
2022-08-16T06:41:55.722Z,99384.32
2022-08-16T06:43:02.091Z,99374.69
2022-08-16T06:44:20.792Z,99374.69
2022-08-16T06:45:29.341Z,99461.64
2022-08-16T06:46:34.727Z,99399.28
2022-08-16T06:47:53.907Z,99399.28
2022-08-16T06:48:49.674Z,99439.91
2022-08-16T06:49:53.944Z,99405.75
2022-08-16T06:50:57.810Z,99433.47
2022-08-16T06:52:02.880Z,99413.98
2022-08-16T06:53:08.851Z,99413.98
2022-08-16T06:54:15.443Z,99415.86
2022-08-16T06:55:19.692Z,99413.39
2022-08-16T06:56:24.660Z,99413.39
2022-08-16T06:57:28.718Z,99410.89
2022-08-16T06:58:35.385Z,99404.30
2022-08-16T06:59:52.819Z,99404.30
2022-08-16T07:00:47.095Z,99411.37
2022-08-16T07:01:55.159Z,99411.37
2022-08-16T07:02:58.704Z,99411.37
2022-08-16T07:04:12.099Z,99411.94
2022-08-16T07:05:15.577Z,99411.94
2022-08-16T07:06:21.943Z,99409.34
2022-08-16T07:07:32.441Z,99409.34
2022-08-16T07:08:34.637Z,99410.39
2022-08-16T07:09:38.731Z,99408.74
2022-08-16T07:10:42.861Z,99430.69
2022-08-16T07:11:51.747Z,99416.98
2022-08-16T07:13:04.388Z,99407.64
2022-08-16T07:14:25.298Z,99407.64
2022-08-16T07:15:08.480Z,99400.19
2022-08-16T07:16:15.696Z,99434.30
2022-08-16T07:17:19.924Z,99400.52
2022-08-16T07:18:24.514Z,99384.00
2022-08-16T07:20:01.274Z,99390.46
2022-08-16T07:20:47.216Z,99390.46
2022-08-16T07:21:59.569Z,99419.80
2022-08-16T07:22:59.088Z,99471.73
2022-08-16T07:24:05.966Z,99418.02
2022-08-16T07:25:12.532Z,99418.02
2022-08-16T07:26:25.135Z,99411.65
2022-08-16T07:27:33.565Z,99426.09
2022-08-16T07:28:39.417Z,99426.09
2022-08-16T07:29:44.311Z,99409.28
2022-08-16T07:30:48.826Z,99409.28
2022-08-16T07:31:53.758Z,99393.36
2022-08-16T07:33:01.023Z,99393.36
2022-08-16T07:34:03.874Z,99387.22
2022-08-16T07:35:10.205Z,99387.22
2022-08-16T07:36:22.185Z,99384.99
2022-08-16T07:37:23.234Z,99388.55
2022-08-16T07:38:31.952Z,99385.73
2022-08-16T07:39:33.973Z,99394.22
2022-08-16T07:40:59.457Z,99393.84
2022-08-16T07:42:02.567Z,99406.32
2022-08-16T07:42:54.814Z,99398.30
2022-08-16T07:43:59.283Z,99409.67
2022-08-16T07:45:10.052Z,99406.17
2022-08-16T07:46:38.113Z,99406.17
2022-08-16T07:47:17.644Z,99410.83
2022-08-16T07:48:23.939Z,99405.69
2022-08-16T07:49:33.667Z,99399.03
2022-08-16T07:50:56.351Z,99399.03
2022-08-16T07:51:44.890Z,99406.73
2022-08-16T07:52:50.582Z,99421.41
2022-08-16T07:54:02.543Z,99422.37
2022-08-16T07:55:00.373Z,99420.86
2022-08-16T07:56:05.201Z,99429.30
2022-08-16T07:57:11.815Z,99429.30
2022-08-16T07:58:33.837Z,99428.43
2022-08-16T07:59:24.727Z,99431.88
2022-08-16T08:00:31.187Z,99432.61
2022-08-16T08:01:36.581Z,99429.87
2022-08-16T08:02:43.570Z,99432.91
2022-08-16T08:03:49.601Z,99432.91
2022-08-16T08:04:53.738Z,99436.86
2022-08-16T08:05:57.731Z,99436.86
2022-08-16T08:07:01.974Z,99428.06
2022-08-16T08:08:11.501Z,99435.92
2022-08-16T08:09:14.077Z,99435.92
2022-08-16T08:10:29.274Z,99439.03
2022-08-16T08:11:30.167Z,99438.55
2022-08-16T08:12:36.036Z,99438.55
2022-08-16T08:13:42.200Z,99441.39
2022-08-16T08:14:46.979Z,99441.39
2022-08-16T08:15:52.637Z,99441.98
2022-08-16T08:16:56.691Z,99437.83
2022-08-16T08:18:30.668Z,99437.83
2022-08-16T08:19:08.267Z,99429.77
2022-08-16T08:20:26.574Z,99415.30
2022-08-16T08:21:27.749Z,99428.59
2022-08-16T08:22:32.048Z,99423.13
2022-08-16T08:23:36.154Z,99429.77
2022-08-16T08:24:44.156Z,99432.50
2022-08-16T08:25:55.006Z,99432.50
2022-08-16T08:26:55.661Z,99423.23
2022-08-16T08:27:59.696Z,99432.36
2022-08-16T08:29:08.596Z,99432.36
2022-08-16T08:30:50.310Z,99420.28
2022-08-16T08:31:17.813Z,99432.36
2022-08-16T08:32:57.255Z,99439.02
2022-08-16T08:33:27.832Z,99433.91
2022-08-16T08:34:32.030Z,99435.33
2022-08-16T08:35:36.791Z,99435.33
2022-08-16T08:36:42.088Z,99427.95
2022-08-16T08:37:55.391Z,99445.80
2022-08-16T08:38:53.838Z,99437.23
2022-08-16T08:39:58.976Z,99437.23
2022-08-16T08:41:06.314Z,99428.77
2022-08-16T08:42:11.996Z,99426.16
2022-08-16T08:43:18.284Z,99420.56
2022-08-16T08:44:28.527Z,99423.25
2022-08-16T08:45:48.135Z,99429.20
2022-08-16T08:46:36.748Z,99429.20
2022-08-16T08:47:40.850Z,99427.06
2022-08-16T08:48:59.855Z,99429.87
2022-08-16T08:49:55.604Z,99435.83
2022-08-16T08:50:56.553Z,99428.22
2022-08-16T08:52:01.642Z,99428.22
2022-08-16T08:53:07.376Z,99431.76
2022-08-16T08:54:11.437Z,99431.76
2022-08-16T08:55:17.010Z,99444.83
2022-08-16T08:56:25.395Z,99441.89
2022-08-16T08:57:28.455Z,99440.08
2022-08-16T08:58:34.904Z,99366.59
2022-08-16T09:01:56.303Z,99434.18
2022-08-16T09:02:57.537Z,99444.13
2022-08-16T09:04:04.623Z,99430.73
2022-08-16T09:05:15.519Z,99442.48
2022-08-16T09:06:18.559Z,99438.17
2022-08-16T09:07:21.908Z,99438.17
2022-08-16T09:08:27.817Z,99439.70
2022-08-16T09:09:34.069Z,99444.11
2022-08-16T09:10:39.524Z,99445.03
2022-08-16T09:11:43.604Z,99439.07
2022-08-16T09:12:48.539Z,99442.41
2022-08-16T09:13:54.149Z,99443.72
2022-08-16T09:14:59.352Z,99443.72
2022-08-16T09:16:04.007Z,99438.09
2022-08-16T09:17:11.800Z,99445.30
2022-08-16T09:18:24.936Z,99448.26
2022-08-16T09:19:32.877Z,99439.82
2022-08-16T09:20:31.725Z,99440.48
2022-08-16T09:21:35.926Z,99443.30
2022-08-16T09:22:41.669Z,99443.30
2022-08-16T09:23:45.748Z,99450.78
2022-08-16T09:24:53.994Z,99450.78
2022-08-16T09:26:00.637Z,99442.98
2022-08-16T09:27:08.741Z,99454.61
2022-08-16T09:29:13.489Z,99460.09
2022-08-16T09:29:23.698Z,99460.09
2022-08-16T09:30:33.655Z,99456.70
2022-08-16T09:31:36.051Z,99463.71
2022-08-16T09:32:42.255Z,99475.05
2022-08-16T09:33:51.946Z,99460.11
2022-08-16T09:34:58.457Z,99462.06
2022-08-16T09:36:01.622Z,99459.41
2022-08-16T09:37:19.768Z,99460.42
2022-08-16T09:38:31.579Z,99457.84
2022-08-16T09:39:19.683Z,99454.47
2022-08-16T09:40:32.802Z,99447.98
2022-08-16T09:41:32.483Z,99460.16
2022-08-16T09:42:55.812Z,99451.81
2022-08-16T09:43:58.786Z,99454.13
2022-08-16T09:45:10.884Z,99452.28
2022-08-16T09:45:55.817Z,99466.38
2022-08-16T09:46:59.911Z,99465.86
2022-08-16T09:48:04.173Z,99465.28
2022-08-16T09:49:09.762Z,99477.02
2022-08-16T09:50:22.717Z,99477.02
2022-08-16T09:51:23.376Z,99472.86
2022-08-16T09:52:27.543Z,99484.80
2022-08-16T09:53:31.588Z,99475.52
2022-08-16T09:54:38.386Z,99472.63
2022-08-16T09:55:44.222Z,99475.17
2022-08-16T09:56:52.300Z,99468.16
2022-08-16T09:57:55.443Z,99456.19
2022-08-16T09:59:03.313Z,99458.92
2022-08-16T10:00:44.453Z,99458.92
2022-08-16T10:01:17.587Z,99453.95
2022-08-16T10:02:27.656Z,99460.91
2022-08-16T10:03:30.330Z,99460.91
2022-08-16T10:04:53.077Z,99456.25
2022-08-16T10:05:40.481Z,99457.43
2022-08-16T10:06:46.169Z,99457.43
2022-08-16T10:07:51.095Z,99463.91
2022-08-16T10:09:05.628Z,99459.94
2022-08-16T10:10:02.321Z,99459.94
2022-08-16T10:11:06.493Z,99462.57
2022-08-16T10:12:18.063Z,99460.42
2022-08-16T10:13:18.438Z,99453.97
2022-08-16T10:14:33.429Z,99453.97
2022-08-16T10:15:32.390Z,99463.71
2022-08-16T10:16:38.813Z,99458.42
2022-08-16T10:17:43.814Z,99460.58
2022-08-16T10:19:01.592Z,99453.64
2022-08-16T10:19:53.694Z,99458.48
2022-08-16T10:20:59.638Z,99465.38
2022-08-16T10:22:04.599Z,98971.61
2022-08-16T10:23:17.297Z,98971.61
2022-08-16T10:24:27.095Z,99464.58
2022-08-16T10:27:17.250Z,99467.66
2022-08-16T10:27:20.626Z,99467.66
2022-08-16T10:27:46.250Z,99459.09
2022-08-16T10:28:46.157Z,99457.20
2022-08-16T10:30:00.979Z,99307.45
2022-08-16T10:30:59.782Z,99464.09
2022-08-16T10:32:05.006Z,99469.37
2022-08-16T10:33:15.051Z,99474.61
2022-08-16T10:34:31.872Z,99474.61
2022-08-16T10:35:33.090Z,99479.82
2022-08-16T10:36:48.619Z,99479.82
2022-08-16T10:37:42.772Z,99479.30
2022-08-16T10:38:47.040Z,99489.45
2022-08-16T10:39:52.872Z,99480.98
2022-08-16T10:41:00.349Z,99483.32
2022-08-16T10:42:04.543Z,99486.70
2022-08-16T10:43:18.307Z,99486.70
2022-08-16T10:44:17.587Z,99477.35
2022-08-16T10:45:22.875Z,99481.59
2022-08-16T10:46:39.668Z,99481.59
2022-08-16T10:47:38.107Z,99485.80
2022-08-16T10:48:47.274Z,99482.35
2022-08-16T10:49:51.300Z,99482.13
2022-08-16T10:50:57.045Z,99482.13
2022-08-16T10:52:18.782Z,99489.38
2022-08-16T10:53:08.324Z,99492.17
2022-08-16T10:54:28.828Z,99490.53
2022-08-16T10:56:51.534Z,99499.48
2022-08-16T10:57:33.139Z,99499.48
2022-08-16T10:58:37.231Z,99502.73
2022-08-16T10:59:54.519Z,99502.73
2022-08-16T11:00:48.709Z,99493.38
2022-08-16T11:03:01.211Z,99498.35
2022-08-16T11:05:04.641Z,99498.35
2022-08-16T11:05:14.081Z,99499.48
2022-08-16T11:06:21.538Z,99506.89
2022-08-16T11:07:43.107Z,99497.77
2022-08-16T11:08:37.522Z,99500.76
2022-08-16T11:09:43.870Z,99500.76
2022-08-16T11:11:06.536Z,99512.53
2022-08-16T11:12:13.713Z,99513.05
2022-08-16T11:14:11.709Z,99510.42
2022-08-16T11:15:17.124Z,99510.42
2022-08-16T11:17:02.772Z,99515.54
2022-08-16T11:17:26.965Z,99515.54
2022-08-16T11:19:03.672Z,99512.73
2022-08-16T11:20:49.177Z,99517.08
2022-08-16T11:22:57.502Z,99509.92
2022-08-16T11:24:01.571Z,99509.92
2022-08-16T11:25:59.649Z,99513.59
2022-08-16T11:26:23.809Z,99511.36
2022-08-16T11:27:23.406Z,99514.09
2022-08-16T11:29:34.272Z,99511.94
2022-08-16T11:30:39.626Z,99508.11
2022-08-16T11:31:53.948Z,99508.11
2022-08-16T11:32:54.337Z,99508.11
2022-08-16T11:34:01.436Z,99518.86
2022-08-16T11:35:13.395Z,99518.86
2022-08-16T11:36:24.969Z,99515.34
2022-08-16T11:37:27.663Z,99515.34
2022-08-16T11:38:51.991Z,99525.23
2022-08-16T11:39:34.186Z,99513.45
2022-08-16T11:40:44.440Z,99513.76
2022-08-16T11:41:51.486Z,99520.65
2022-08-16T11:43:00.008Z,99520.65
2022-08-16T11:44:13.625Z,99522.05
2022-08-16T11:45:20.174Z,99525.86
2022-08-16T11:46:44.659Z,99527.33
2022-08-16T11:47:32.759Z,99527.33
2022-08-16T11:48:38.580Z,99524.96
2022-08-16T11:49:44.321Z,99518.98
2022-08-16T11:50:50.536Z,99517.68
2022-08-16T11:51:54.672Z,99528.41
2022-08-16T11:53:00.420Z,99529.54
2022-08-16T11:54:21.282Z,99532.04
2022-08-16T11:55:17.597Z,99532.04
2022-08-16T11:56:39.764Z,99537.83
2022-08-16T11:57:28.813Z,99520.87
2022-08-16T11:58:33.463Z,99532.98
2022-08-16T11:59:39.842Z,99529.66
2022-08-16T12:00:51.934Z,99530.30
2022-08-16T12:01:59.182Z,99534.75
2022-08-16T12:03:00.995Z,99531.56
2022-08-16T12:04:05.289Z,99530.80
2022-08-16T12:05:12.442Z,99531.67
2022-08-16T12:06:30.371Z,99531.67
2022-08-16T12:07:25.307Z,99526.48
2022-08-16T12:08:31.405Z,99526.48
2022-08-16T12:09:41.244Z,99525.14
2022-08-16T12:10:43.160Z,99525.14
2022-08-16T12:11:47.537Z,99538.81
2022-08-16T12:12:53.303Z,99526.48
2022-08-16T12:13:57.558Z,99526.48
2022-08-16T12:15:02.646Z,99539.61
2022-08-16T12:16:09.188Z,99539.61
2022-08-16T12:17:22.060Z,99531.62
2022-08-16T12:18:21.577Z,99535.77
2022-08-16T12:19:35.264Z,99537.99
2022-08-16T12:20:35.984Z,99537.99
2022-08-16T12:21:58.475Z,99531.16
2022-08-16T12:22:48.477Z,99531.16
2022-08-16T12:23:52.642Z,99534.37
2022-08-16T12:25:01.399Z,99538.76
2022-08-16T12:26:10.228Z,99538.21
2022-08-16T12:27:13.168Z,99535.41
2022-08-16T12:28:17.215Z,99535.41
2022-08-16T12:29:25.797Z,99533.73
2022-08-16T12:30:38.572Z,99533.73
2022-08-16T12:32:01.424Z,99531.56
2022-08-16T12:32:51.585Z,99540.81
2022-08-16T12:33:57.703Z,99538.73
2022-08-16T12:35:04.910Z,99538.73
2022-08-16T12:36:13.107Z,99536.53
2022-08-16T12:37:17.104Z,99536.53
2022-08-16T12:38:41.301Z,99529.64
2022-08-16T12:39:29.088Z,99526.08
2022-08-16T12:40:37.718Z,99527.61
2022-08-16T12:41:44.971Z,99527.61
2022-08-16T12:42:53.029Z,99529.14
2022-08-16T12:44:01.801Z,99532.16
2022-08-16T12:45:08.727Z,99532.16
2022-08-16T12:46:15.195Z,99535.09
2022-08-16T12:47:20.614Z,99527.38
2022-08-16T12:48:33.807Z,99527.38
2022-08-16T12:49:41.953Z,99530.91
2022-08-16T12:50:41.342Z,99530.91
2022-08-16T12:51:59.519Z,99521.77
2022-08-16T12:52:53.044Z,99523.44
2022-08-16T12:53:59.149Z,99523.44
2022-08-16T12:55:04.564Z,99442.96
2022-08-16T12:56:09.462Z,99523.11
2022-08-16T12:57:17.129Z,99523.11
2022-08-16T12:58:49.252Z,99526.70
2022-08-16T12:59:25.842Z,99528.05
2022-08-16T13:00:33.580Z,99525.54
2022-08-16T13:01:39.590Z,99526.64
2022-08-16T13:02:45.150Z,99523.89
2022-08-16T13:03:49.253Z,99523.89
2022-08-16T13:04:54.994Z,99519.17
2022-08-16T13:05:59.499Z,99518.86
2022-08-16T13:07:08.674Z,99518.86
2022-08-16T13:08:20.149Z,99519.38
2022-08-16T13:09:26.018Z,99524.80
2022-08-16T13:10:37.773Z,99522.56